sensor_id;sensor_type;location;lat;lon;timestamp;pressure;altitude;pressure_sealevel;temperature;humidity
3832;BME280;12460;42.662;23.288;2023-04-10T00:06:23;94648.03;;;7.77;59.14
3832;BME280;12460;42.662;23.288;2023-04-10T00:21:27;94625.72;;;7.63;55.76
3832;BME280;12460;42.662;23.288;2023-04-10T00:36:32;94628.16;;;7.59;53.45
3832;BME280;12460;42.662;23.288;2023-04-10T00:51:36;94620.50;;;7.60;54.11
3832;BME280;12460;42.662;23.288;2023-04-10T01:22:01;94609.66;;;7.56;52.98
3832;BME280;12460;42.662;23.288;2023-04-10T01:37:15;94596.53;;;7.44;54.06
3832;BME280;12460;42.662;23.288;2023-04-10T01:52:21;94601.72;;;7.40;55.24
3832;BME280;12460;42.662;23.288;2023-04-10T02:07:49;94607.00;;;7.51;55.35
3832;BME280;12460;42.662;23.288;2023-04-10T02:22:59;94580.34;;;7.50;56.01
3832;BME280;12460;42.662;23.288;2023-04-10T02:38:06;94568.16;;;7.75;56.38
3832;BME280;12460;42.662;23.288;2023-04-10T02:53:15;94554.69;;;7.66;56.80
3832;BME280;12460;42.662;23.288;2023-04-10T03:08:20;94542.44;;;7.85;56.71
3832;BME280;12460;42.662;23.288;2023-04-10T03:23:25;94559.38;;;7.71;57.25
3832;BME280;12460;42.662;23.288;2023-04-10T03:38:30;94558.88;;;7.81;57.12
3832;BME280;12460;42.662;23.288;2023-04-10T03:53:34;94564.59;;;8.11;57.94
3832;BME280;12460;42.662;23.288;2023-04-10T04:08:43;94581.88;;;8.30;59.53
3832;BME280;12460;42.662;23.288;2023-04-10T04:24:14;94597.16;;;8.29;60.60
3832;BME280;12460;42.662;23.288;2023-04-10T04:39:37;94592.50;;;7.96;62.00
3832;BME280;12460;42.662;23.288;2023-04-10T04:55:02;94605.91;;;9.37;55.98
3832;BME280;12460;42.662;23.288;2023-04-10T05:10:19;94616.97;;;10.35;52.66
3832;BME280;12460;42.662;23.288;2023-04-10T05:25:44;94621.22;;;10.83;51.37
3832;BME280;12460;42.662;23.288;2023-04-10T05:41:06;94611.59;;;11.43;50.03
3832;BME280;12460;42.662;23.288;2023-04-10T05:56:27;94621.56;;;11.61;48.69
3832;BME280;12460;42.662;23.288;2023-04-10T06:11:50;94620.25;;;12.38;47.41
3832;BME280;12460;42.662;23.288;2023-04-10T06:26:57;94609.66;;;11.53;49.01
3832;BME280;12460;42.662;23.288;2023-04-10T06:42:03;94613.22;;;10.72;51.38
3832;BME280;12460;42.662;23.288;2023-04-10T06:57:30;94625.28;;;10.10;52.86
3832;BME280;12460;42.662;23.288;2023-04-10T07:12:34;94625.84;;;10.01;52.46
3832;BME280;12460;42.662;23.288;2023-04-10T07:27:39;94637.88;;;9.79;53.30
3832;BME280;12460;42.662;23.288;2023-04-10T07:42:44;94624.94;;;9.76;53.32
3832;BME280;12460;42.662;23.288;2023-04-10T07:57:49;94637.91;;;10.41;51.70
3832;BME280;12460;42.662;23.288;2023-04-10T08:12:55;94631.03;;;10.27;51.67
3832;BME280;12460;42.662;23.288;2023-04-10T08:28:00;94637.41;;;10.28;52.18
3832;BME280;12460;42.662;23.288;2023-04-10T08:43:04;94616.72;;;10.80;50.82
3832;BME280;12460;42.662;23.288;2023-04-10T08:58:10;94618.50;;;10.68;51.58
3832;BME280;12460;42.662;23.288;2023-04-10T09:13:32;94607.25;;;11.00;50.40
3832;BME280;12460;42.662;23.288;2023-04-10T09:29:05;94603.72;;;11.17;49.45
3832;BME280;12460;42.662;23.288;2023-04-10T09:44:10;94592.38;;;11.07;49.27
3832;BME280;12460;42.662;23.288;2023-04-10T09:59:15;94600.84;;;11.24;49.27
3832;BME280;12460;42.662;23.288;2023-04-10T10:14:22;94593.16;;;11.91;47.53
3832;BME280;12460;42.662;23.288;2023-04-10T10:29:31;94564.06;;;11.89;46.23
3832;BME280;12460;42.662;23.288;2023-04-10T10:44:42;94542.06;;;12.66;43.95
3832;BME280;12460;42.662;23.288;2023-04-10T11:15:02;94517.19;;;12.81;43.23
3832;BME280;12460;42.662;23.288;2023-04-10T11:30:31;94487.69;;;13.38;40.84
3832;BME280;12460;42.662;23.288;2023-04-10T11:45:35;94501.31;;;12.06;44.75
3832;BME280;12460;42.662;23.288;2023-04-10T12:00:40;94480.66;;;13.19;41.63
3832;BME280;12460;42.662;23.288;2023-04-10T12:15:44;94482.03;;;12.92;42.26
3832;BME280;12460;42.662;23.288;2023-04-10T12:30:51;94504.78;;;11.45;51.79
3832;BME280;12460;42.662;23.288;2023-04-10T12:45:56;94518.50;;;10.99;56.50
3832;BME280;12460;42.662;23.288;2023-04-10T13:01:06;94507.16;;;11.14;53.90
3832;BME280;12460;42.662;23.288;2023-04-10T13:16:11;94476.97;;;12.54;50.99
3832;BME280;12460;42.662;23.288;2023-04-10T13:31:17;94470.69;;;13.18;46.80
3832;BME280;12460;42.662;23.288;2023-04-10T13:46:21;94453.75;;;12.73;47.44
3832;BME280;12460;42.662;23.288;2023-04-10T14:01:26;94454.75;;;12.05;48.78
3832;BME280;12460;42.662;23.288;2023-04-10T14:16:31;94433.44;;;11.94;47.68
3832;BME280;12460;42.662;23.288;2023-04-10T14:31:35;94424.94;;;11.50;49.34
3832;BME280;12460;42.662;23.288;2023-04-10T14:46:52;94444.22;;;10.78;49.47
3832;BME280;12460;42.662;23.288;2023-04-10T15:01:57;94444.19;;;10.85;50.61
3832;BME280;12460;42.662;23.288;2023-04-10T15:17:02;94446.44;;;11.04;49.52
3832;BME280;12460;42.662;23.288;2023-04-10T15:32:07;94436.34;;;11.01;49.15
3832;BME280;12460;42.662;23.288;2023-04-10T15:47:11;94411.88;;;11.28;48.76
3832;BME280;12460;42.662;23.288;2023-04-10T16:02:16;94411.88;;;11.28;48.87
3832;BME280;12460;42.662;23.288;2023-04-10T16:17:21;94414.16;;;11.56;47.86
3832;BME280;12460;42.662;23.288;2023-04-10T16:32:24;94408.97;;;11.70;47.58
3832;BME280;12460;42.662;23.288;2023-04-10T16:47:29;94451.75;;;9.86;59.86
3832;BME280;12460;42.662;23.288;2023-04-10T17:02:32;94431.72;;;8.57;66.80
3832;BME280;12460;42.662;23.288;2023-04-10T17:17:36;94444.63;;;8.53;66.64
3832;BME280;12460;42.662;23.288;2023-04-10T17:32:41;94464.78;;;8.74;66.76
3832;BME280;12460;42.662;23.288;2023-04-10T17:47:45;94467.41;;;8.72;67.02
3832;BME280;12460;42.662;23.288;2023-04-10T18:02:50;94477.50;;;8.90;65.19
3832;BME280;12460;42.662;23.288;2023-04-10T18:18:00;94499.31;;;9.22;65.52
3832;BME280;12460;42.662;23.288;2023-04-10T18:33:06;94500.00;;;9.52;65.71
3832;BME280;12460;42.662;23.288;2023-04-10T18:48:13;94501.66;;;9.63;66.04
3832;BME280;12460;42.662;23.288;2023-04-10T19:03:18;94492.44;;;9.70;65.65
3832;BME280;12460;42.662;23.288;2023-04-10T19:18:23;94490.97;;;9.69;65.59
3832;BME280;12460;42.662;23.288;2023-04-10T19:33:28;94489.38;;;9.43;65.07
3832;BME280;12460;42.662;23.288;2023-04-10T19:48:33;94494.66;;;8.79;67.26
3832;BME280;12460;42.662;23.288;2023-04-10T20:03:37;94481.97;;;8.70;67.50
3832;BME280;12460;42.662;23.288;2023-04-10T20:18:41;94456.75;;;8.85;67.45
3832;BME280;12460;42.662;23.288;2023-04-10T20:33:45;94429.41;;;9.01;67.55
3832;BME280;12460;42.662;23.288;2023-04-10T20:48:49;94429.03;;;9.12;66.98
3832;BME280;12460;42.662;23.288;2023-04-10T21:03:56;94432.00;;;9.22;67.12
3832;BME280;12460;42.662;23.288;2023-04-10T21:19:02;94439.28;;;9.25;66.63
3832;BME280;12460;42.662;23.288;2023-04-10T21:34:05;94433.88;;;9.19;65.49
3832;BME280;12460;42.662;23.288;2023-04-10T21:49:09;94421.72;;;9.09;64.32
3832;BME280;12460;42.662;23.288;2023-04-10T22:04:14;94406.97;;;9.08;63.87
3832;BME280;12460;42.662;23.288;2023-04-10T22:19:19;94393.53;;;8.99;63.87
3832;BME280;12460;42.662;23.288;2023-04-10T22:34:23;94393.56;;;8.84;63.01
3832;BME280;12460;42.662;23.288;2023-04-10T22:49:28;94390.03;;;8.76;62.71
3832;BME280;12460;42.662;23.288;2023-04-10T23:04:33;94378.44;;;8.87;63.15
3832;BME280;12460;42.662;23.288;2023-04-10T23:19:38;94372.22;;;8.96;62.67
3832;BME280;12460;42.662;23.288;2023-04-10T23:34:42;94358.16;;;9.11;62.55
3832;BME280;12460;42.662;23.288;2023-04-10T23:49:47;94341.91;;;9.10;62.04
